Página principal
METAR-TAF:

METAR-TAF

Aeroportos :

Bahrein, Bahrein

Aeroporto Internacional do Bahrain

latitude: 26-16N, longitude: 050-39E, altura: 2 m

Observação actual do tempo

O boletim foi feito há 1 hora e 14 minutos, às 06:00 UTC
Vento 12 kt de noroeste
Temperatura 30°C
Humidade 46%
Pressão 1011 hPa
Visibilidade 10 km ou mais
sem nuvens abaixo de 1500 metros e sem cumulonimbus

METAR: OBBI 270600Z 31012KT CAVOK 30/17 Q1011 NOSIG

Hora: 10:14 (07:14 UTC)

Previsão

O boletim foi feito há 2 horas e 14 minutos, às 05:00 UTC
Previsão válida de 27 às 06 UTC a 28 às 12 UTC
Vento 10 kt de norte
Visibilidade 10 km ou mais
sem nuvens abaixo de 1500 metros e sem cumulonimbus

TAF: OBBI 270500Z 2706/2812 35010KT CAVOK

Observações e previsões do tempo de mais de 4000 aeroportos (mensagens METAR e TAF).

As estações disponíveis são os pontos amarelos e vermelhos sobre o mapa.

Mova o rato sobre o mapa para ver o nome da estação.

Depois clique no ponto para visualizar as observações e previsões meteorológicas.

Para alterar o mapa : clique nos botões verdes com uma cruz preta para aumentar o zoom; no botão verde com uma pitada de zoom; ou nas setas verdes para mapas adjacentes.


METAR-TAF: